This is the latest recevied weather packets stored in our database for station/object KC9DK. If no packets are shown the sender has not sent any weather packets the latest 1 day(s).
| Time | Temp. | Humidity | Pressure | Rain* | Wind** | Luminosity | Snow |
|---|---|---|---|---|---|---|---|
| 1778031389 | 10.56° C | 97% | 1007.9 hPa | 0 mm | - | 0 W/m² | - |
| 1778030782 | 10.56° C | 97% | 1008.1 hPa | 0 mm | - | 0 W/m² | - |
| 1778030478 | 10.56° C | 97% | 1008.3 hPa | 0 mm | - | 0 W/m² | - |
| 1778030176 | 10.56° C | 97% | 1008.2 hPa | 0 mm | - | 0 W/m² | - |
| 1778029566 | 10.56° C | 97% | 1008.3 hPa | 0 mm | - | 0 W/m² | - |
| 1778028655 | 10.56° C | 96% | 1008 hPa | 0 mm | - | 0 W/m² | - |
| 1778028049 | 10.56° C | 96% | 1008.2 hPa | 0 mm | - | 0 W/m² | - |
| 1778027138 | 10.56° C | 97% | 1008.2 hPa | 0 mm | - | 1 W/m² | - |
| 1778026834 | 10.56° C | 97% | 1008.1 hPa | 0 mm | - | 4 W/m² | - |
| 1778026228 | 10.56° C | 97% | 1007.8 hPa | 0 mm | - | 10 W/m² | - |
| 1778025321 | 10.56° C | 96% | 1008.3 hPa | 0 mm | - | 16 W/m² | - |
| 1778024411 | 10.56° C | 96% | 1008.5 hPa | 0 mm | - | 5 W/m² | - |
| 1778023806 | 10.56° C | 96% | 1008.5 hPa | 0 mm | - | 17 W/m² | - |
| 1778023504 | 11.11° C | 96% | 1008.6 hPa | 1.78 mm | - | 27 W/m² | - |
| 1778023201 | 11.11° C | 96% | 1008.3 hPa | 1.78 mm | - | 29 W/m² | - |
| 1778020170 | 12.22° C | 95% | 1008.5 hPa | 1.78 mm | - | 55 W/m² | - |
| 1778018957 | 13.89° C | 95% | 1008.5 hPa | 1.27 mm | - | 41 W/m² | - |
| 1778018654 | 13.89° C | 95% | 1008.4 hPa | 3.05 mm | - | 62 W/m² | - |
| 1778015626 | 16.67° C | 96% | 1007.8 hPa | 0 mm | - | 35 W/m² | - |
| 1778014716 | 16.67° C | 96% | 1007.7 hPa | 4.83 mm | - | 101 W/m² | - |
* Rain latest hour (hover to see other rain measurements)
** Current wind speed in m/s (hover to see current wind gust speed)